createdAt,value
2019-04-23T00:03:12.908Z,1.03
2019-04-23T00:08:42.113Z,1.10
2019-04-23T00:13:30.502Z,1.50
2019-04-23T00:23:46.297Z,1.30
2019-04-23T00:28:51.944Z,1.23
2019-04-23T00:33:57.489Z,1.20
2019-04-23T00:38:54.224Z,1.20
2019-04-23T00:49:10.810Z,1.23
2019-04-23T00:54:17.924Z,1.30
2019-04-23T00:59:29.924Z,1.40
2019-04-23T01:04:32.719Z,1.50
2019-04-23T01:09:47.097Z,1.40
2019-04-23T01:14:50.067Z,1.60
2019-04-23T01:20:03.361Z,1.40
2019-04-23T01:25:28.647Z,1.50
2019-04-23T01:36:12.168Z,1.50
2019-04-23T01:41:00.427Z,1.50
2019-04-23T01:46:07.982Z,1.47
2019-04-23T01:51:16.168Z,1.40
2019-04-23T01:56:24.207Z,1.60
2019-04-23T02:01:36.060Z,1.50
2019-04-23T02:06:51.821Z,1.73
2019-04-23T02:11:46.834Z,1.87
2019-04-23T02:16:50.403Z,1.73
2019-04-23T02:22:28.469Z,1.40
2019-04-23T02:27:29.582Z,1.73
2019-04-23T02:32:38.126Z,1.40
2019-04-23T02:37:53.766Z,1.50
2019-04-23T02:43:03.553Z,1.63
2019-04-23T02:48:05.700Z,1.60
2019-04-23T02:52:56.140Z,1.90
2019-04-23T02:58:10.312Z,1.70
2019-04-23T03:03:22.524Z,1.80
2019-04-23T03:13:51.053Z,1.50
2019-04-23T03:24:13.410Z,1.73
2019-04-23T03:29:10.583Z,1.60
2019-04-23T03:39:18.817Z,1.90
2019-04-23T03:44:29.952Z,1.93
2019-04-23T03:59:58.869Z,1.67
2019-04-23T04:04:45.273Z,1.83
2019-04-23T04:10:09.053Z,1.87
2019-04-23T04:20:15.314Z,2.00
2019-04-23T04:25:26.918Z,1.70
2019-04-23T04:30:27.213Z,1.70
2019-04-23T04:45:59.169Z,2.20
2019-04-23T04:56:09.781Z,1.77
2019-04-23T05:01:08.461Z,2.30
2019-04-23T05:06:12.744Z,2.27
2019-04-23T05:11:28.215Z,2.07
2019-04-23T05:16:19.688Z,2.33
2019-04-23T05:21:33.163Z,2.10
2019-04-23T05:36:45.679Z,2.40
2019-04-23T05:41:53.797Z,2.20
2019-04-23T05:46:59.641Z,2.37
2019-04-23T05:52:04.483Z,2.57
2019-04-23T05:57:06.661Z,2.40
2019-04-23T06:02:11.004Z,2.80
2019-04-23T06:12:31.435Z,2.33
2019-04-23T06:17:55.850Z,2.30
2019-04-23T06:22:46.010Z,2.50
2019-04-23T06:27:57.904Z,2.93
2019-04-23T06:32:59.262Z,2.57
2019-04-23T06:48:24.046Z,2.50
2019-04-23T06:53:27.283Z,2.73
2019-04-23T07:03:46.782Z,2.67
2019-04-23T07:09:05.339Z,2.90
2019-04-23T07:19:04.314Z,2.80
2019-04-23T07:24:08.509Z,3.00
2019-04-23T07:29:22.799Z,2.63
2019-04-23T07:34:20.453Z,3.10
2019-04-23T07:39:55.274Z,2.77
2019-04-23T07:44:57.937Z,3.03
2019-04-23T07:50:19.254Z,2.70
2019-04-23T07:55:20.108Z,2.50
2019-04-23T08:00:18.166Z,2.60
2019-04-23T08:05:31.614Z,2.50
2019-04-23T08:10:43.808Z,2.70
2019-04-23T08:15:41.454Z,2.80
2019-04-23T08:26:22.176Z,3.27
2019-04-23T08:31:15.163Z,3.13
2019-04-23T08:36:29.557Z,2.70
2019-04-23T08:41:33.855Z,2.73
2019-04-23T08:57:09.109Z,2.73
2019-04-23T09:02:25.579Z,2.70
2019-04-23T09:07:22.044Z,2.77
2019-04-23T09:12:28.652Z,2.43
2019-04-23T09:17:34.928Z,3.00
2019-04-23T09:27:41.887Z,2.97
2019-04-23T09:32:58.865Z,3.30
2019-04-23T09:38:19.562Z,3.50
2019-04-23T09:43:50.177Z,3.10
2019-04-23T09:54:01.096Z,3.30
2019-04-23T09:59:10.936Z,3.03
2019-04-23T10:03:57.654Z,3.37
2019-04-23T10:08:53.809Z,3.60
2019-04-23T10:13:54.708Z,2.83
2019-04-23T10:19:01.009Z,2.80
2019-04-23T10:24:07.396Z,2.50
2019-04-23T10:29:16.054Z,3.13
2019-04-23T10:34:21.145Z,2.83
2019-04-23T10:39:30.436Z,2.90
2019-04-23T10:44:43.155Z,2.60
2019-04-23T10:50:51.390Z,2.63
2019-04-23T11:01:04.219Z,2.77
2019-04-23T11:06:24.967Z,3.17
2019-04-23T11:11:24.071Z,2.70
2019-04-23T11:21:34.563Z,3.17
2019-04-23T11:26:42.705Z,3.07
2019-04-23T11:37:06.961Z,2.60
2019-04-23T11:42:05.178Z,3.17
2019-04-23T11:47:14.057Z,3.00
2019-04-23T11:52:23.454Z,2.83
2019-04-23T11:57:29.910Z,3.20
2019-04-23T12:02:38.958Z,3.20
2019-04-23T12:08:01.523Z,3.20
2019-04-23T12:13:03.851Z,3.13
2019-04-23T12:18:10.115Z,3.50
2019-04-23T12:23:24.046Z,3.30
2019-04-23T12:28:30.136Z,3.33
2019-04-23T12:33:36.114Z,3.00
2019-04-23T12:38:33.019Z,3.43
2019-04-23T12:43:45.663Z,3.10
2019-04-23T12:53:49.440Z,2.90
2019-04-23T12:59:01.751Z,3.13
2019-04-23T13:04:09.638Z,3.10
2019-04-23T13:09:33.129Z,2.60
2019-04-23T13:14:34.792Z,2.83
2019-04-23T13:19:45.082Z,3.27
2019-04-23T13:25:03.097Z,3.00
2019-04-23T13:30:06.775Z,2.60
2019-04-23T13:35:28.123Z,2.73
2019-04-23T13:40:22.779Z,2.50
2019-04-23T13:45:47.064Z,2.50
2019-04-23T13:55:39.411Z,2.70
2019-04-23T14:00:58.094Z,2.83
2019-04-23T14:06:10.823Z,2.90
2019-04-23T14:16:29.149Z,2.70
2019-04-23T14:26:34.134Z,2.60
2019-04-23T14:31:35.970Z,2.90
2019-04-23T14:36:52.293Z,3.30
2019-04-23T14:41:53.007Z,3.10
2019-04-23T14:47:07.438Z,2.90
2019-04-23T14:52:06.740Z,3.00
2019-04-23T14:57:15.716Z,2.80
2019-04-23T15:02:25.645Z,3.10
2019-04-23T15:12:42.794Z,2.43
2019-04-23T15:23:14.257Z,2.77
2019-04-23T15:28:06.862Z,3.00
2019-04-23T15:33:19.909Z,2.80
2019-04-23T15:43:18.552Z,3.00
2019-04-23T15:48:22.462Z,2.87
2019-04-23T15:53:24.072Z,2.73
2019-04-23T15:58:46.806Z,2.60
2019-04-23T16:03:14.976Z,3.20
2019-04-23T16:09:01.644Z,3.60
2019-04-23T16:24:21.195Z,2.93
2019-04-23T16:34:40.475Z,2.70
2019-04-23T16:39:58.025Z,2.90
2019-04-23T16:45:13.101Z,3.30
2019-04-23T16:50:11.436Z,2.83
2019-04-23T16:55:17.764Z,3.30
2019-04-23T17:00:33.573Z,2.97
2019-04-23T17:05:39.318Z,3.13
2019-04-23T17:10:46.913Z,2.80
2019-04-23T17:20:57.876Z,2.80
2019-04-23T17:36:24.853Z,2.40
2019-04-23T17:42:01.487Z,2.40
2019-04-23T17:47:20.410Z,2.43
2019-04-23T17:52:31.693Z,3.00
2019-04-23T18:08:13.733Z,2.33
2019-04-23T18:12:58.025Z,2.47
2019-04-23T18:23:08.184Z,2.53
2019-04-23T18:28:10.399Z,2.37
2019-04-23T18:38:36.294Z,2.70
2019-04-23T18:43:35.595Z,2.27
2019-04-23T18:48:49.850Z,2.00
2019-04-23T18:53:57.354Z,2.40
2019-04-23T18:59:04.875Z,2.33
2019-04-23T19:09:47.735Z,2.40
2019-04-23T19:14:52.210Z,2.00
2019-04-23T19:24:53.403Z,2.63
2019-04-23T19:30:42.941Z,2.50
2019-04-23T19:36:01.436Z,2.23
2019-04-23T19:40:51.214Z,2.20
2019-04-23T19:46:02.036Z,2.43
2019-04-23T19:51:05.855Z,2.40
2019-04-23T20:06:48.505Z,2.90
2019-04-23T20:11:34.717Z,2.63
2019-04-23T20:21:47.414Z,2.70
2019-04-23T20:32:09.092Z,3.00
2019-04-23T20:36:57.788Z,2.50
2019-04-23T20:47:15.909Z,2.67
2019-04-23T20:52:22.458Z,2.73
2019-04-23T21:03:26.056Z,2.67
2019-04-23T21:08:14.806Z,2.73
2019-04-23T21:13:42.971Z,2.73
2019-04-23T21:18:31.230Z,3.30
2019-04-23T21:23:30.326Z,3.33
2019-04-23T21:28:44.093Z,2.63
2019-04-23T21:33:57.208Z,2.63
2019-04-23T21:49:38.179Z,2.80
2019-04-23T21:54:41.245Z,3.10
2019-04-23T21:59:44.668Z,3.33
2019-04-23T22:04:52.067Z,3.60
2019-04-23T22:09:57.235Z,3.17
2019-04-23T22:14:57.732Z,3.43
2019-04-23T22:20:19.657Z,3.07
2019-04-23T22:25:13.051Z,3.50
2019-04-23T22:30:22.416Z,2.90
2019-04-23T22:35:35.115Z,2.87
2019-04-23T22:40:34.495Z,3.30
2019-04-23T22:46:02.935Z,3.60
2019-04-23T22:50:57.436Z,3.20
2019-04-23T23:01:26.152Z,3.73
2019-04-23T23:06:34.795Z,2.80
2019-04-23T23:11:41.343Z,3.10
2019-04-23T23:16:35.920Z,3.13
2019-04-23T23:21:51.577Z,2.93
2019-04-23T23:26:54.363Z,3.47
2019-04-23T23:32:03.897Z,3.30
2019-04-23T23:37:12.055Z,3.23
2019-04-23T23:42:14.411Z,3.10
2019-04-23T23:47:14.899Z,3.00
2019-04-23T23:52:21.734Z,2.60
2019-04-23T23:57:22.312Z,3.10
